This is the latest recevied weather packets stored in our database for station/object R2AKT-13. If no packets are shown the sender has not sent any weather packets the latest 10 day(s).
| Time | Temp. | Humidity | Pressure | Rain* | Wind** | Luminosity | Snow |
|---|---|---|---|---|---|---|---|
| 1788537366 | 18.89° C | 50% | 984.7 hPa | - | 0.89 m/s, 184° | - | - |
| 1788536781 | 18.89° C | 50% | 984.8 hPa | - | 0.89 m/s, 193° | - | - |
| 1788536281 | 19.44° C | 49% | 984.8 hPa | - | 1.34 m/s, 199° | - | - |
| 1788535711 | 20° C | 47% | 984.9 hPa | - | 0.89 m/s, 182° | - | - |
| 1788535151 | 20.56° C | 46% | 985 hPa | - | 0 m/s | - | - |
| 1788534606 | 20.56° C | 46% | 985.1 hPa | - | 1.34 m/s, 208° | - | - |
| 1788534076 | 20° C | 46% | 985.1 hPa | - | 1.34 m/s, 213° | - | - |
| 1788533491 | 20.56° C | 46% | 985.2 hPa | - | 0.45 m/s, 204° | - | - |
| 1788532921 | 20° C | 46% | 985.3 hPa | - | 0.45 m/s, 230° | - | - |
| 1788532391 | 21.11° C | 43% | 985.3 hPa | - | 0.89 m/s, 185° | - | - |
| 1788531861 | 21.11° C | 44% | 985.5 hPa | - | 0.45 m/s, 227° | - | - |
| 1788531331 | 21.11° C | 45% | 985.5 hPa | - | 0 m/s | - | - |
| 1788530796 | 20° C | 46% | 985.6 hPa | - | 0 m/s | - | - |
| 1788530266 | 20° C | 48% | 985.7 hPa | - | 0 m/s | - | - |
| 1788529746 | 20° C | 46% | 985.7 hPa | - | 0.45 m/s, 196° | - | - |
| 1788529261 | 20° C | 47% | 985.8 hPa | - | 0.45 m/s, 254° | - | - |
| 1788528661 | 20° C | 47% | 985.8 hPa | - | 0.45 m/s, 229° | - | - |
| 1788528120 | 20° C | 46% | 985.7 hPa | - | 1.34 m/s, 204° | - | - |
| 1788527596 | 21.11° C | 44% | 985.8 hPa | - | 1.34 m/s, 176° | - | - |
| 1788527071 | 21.11° C | 43% | 985.8 hPa | - | 2.24 m/s, 187° | - | - |
| 1788526551 | 21.67° C | 41% | 985.8 hPa | - | 0.45 m/s, 246° | - | - |
| 1788525981 | 21.67° C | 42% | 986 hPa | - | 0.45 m/s, 235° | - | - |
| 1788525495 | 21.11° C | 43% | 986.1 hPa | - | 1.79 m/s, 196° | - | - |
| 1788525005 | 20.56° C | 45% | 986.1 hPa | - | 1.34 m/s, 199° | - | - |
| 1788524416 | 20.56° C | 46% | 986.2 hPa | - | 0 m/s | - | - |
* Rain since midnight (hover to see other rain measurements)
** Current wind speed in m/s (hover to see current wind gust speed)